createdAt,value
2019-05-10T00:01:06.009Z,15.45
2019-05-10T00:03:53.137Z,15.43
2019-05-10T00:06:40.784Z,15.52
2019-05-10T00:09:09.499Z,15.44
2019-05-10T00:12:07.855Z,15.24
2019-05-10T00:14:54.849Z,15.33
2019-05-10T00:17:25.015Z,15.21
2019-05-10T00:19:56.439Z,14.93
2019-05-10T00:22:26.554Z,14.87
2019-05-10T00:25:03.850Z,14.69
2019-05-10T00:27:28.800Z,14.67
2019-05-10T00:29:58.927Z,14.84
2019-05-10T00:32:29.053Z,14.88
2019-05-10T00:34:58.934Z,14.74
2019-05-10T00:37:28.844Z,14.82
2019-05-10T00:39:59.211Z,14.98
2019-05-10T00:42:29.931Z,15.11
2019-05-10T00:45:00.017Z,14.99
2019-05-10T00:47:29.952Z,15.22
2019-05-10T00:50:02.115Z,15.09
2019-05-10T00:52:35.349Z,15.24
2019-05-10T00:55:18.535Z,15.03
2019-05-10T00:57:37.769Z,15.07
2019-05-10T01:00:09.453Z,15.12
2019-05-10T01:02:39.770Z,15.14
2019-05-10T01:05:09.837Z,15.14
2019-05-10T01:07:40.337Z,15.02
2019-05-10T01:10:11.018Z,15.29
2019-05-10T01:12:40.742Z,15.28
2019-05-10T01:15:11.718Z,15.28
2019-05-10T01:17:41.613Z,15.37
2019-05-10T01:20:12.369Z,15.57
2019-05-10T01:22:42.995Z,15.52
2019-05-10T01:25:13.219Z,15.27
2019-05-10T01:27:43.346Z,15.50
2019-05-10T01:30:14.563Z,15.48
2019-05-10T01:32:45.254Z,15.44
2019-05-10T01:35:15.912Z,15.34
2019-05-10T01:37:45.957Z,15.09
2019-05-10T01:40:16.581Z,15.15
2019-05-10T01:42:47.859Z,15.17
2019-05-10T01:45:18.265Z,15.34
2019-05-10T01:47:48.620Z,15.32
2019-05-10T01:50:18.985Z,15.31
2019-05-10T01:52:49.199Z,15.16
2019-05-10T01:55:19.349Z,15.26
2019-05-10T01:57:50.162Z,14.25
2019-05-10T02:00:21.518Z,15.07
2019-05-10T02:02:51.605Z,15.14
2019-05-10T02:05:22.034Z,15.08
2019-05-10T02:07:51.892Z,15.28
2019-05-10T02:10:22.534Z,15.21
2019-05-10T02:12:52.917Z,15.00
2019-05-10T02:15:22.912Z,15.00
2019-05-10T02:17:54.160Z,14.90
2019-05-10T02:20:24.680Z,14.82
2019-05-10T02:22:54.832Z,14.72
2019-05-10T02:25:25.265Z,14.77
2019-05-10T02:27:55.360Z,14.90
2019-05-10T02:30:26.176Z,14.95
2019-05-10T02:32:57.522Z,14.71
2019-05-10T02:35:27.423Z,14.56
2019-05-10T02:37:57.771Z,13.67
2019-05-10T02:40:28.268Z,14.57
2019-05-10T02:42:58.794Z,14.65
2019-05-10T02:45:29.317Z,14.50
2019-05-10T02:47:59.538Z,14.58
2019-05-10T02:50:30.260Z,14.47
2019-05-10T02:53:00.122Z,14.59
2019-05-10T02:55:31.969Z,14.11
2019-05-10T02:58:02.548Z,14.02
2019-05-10T03:00:35.994Z,13.86
2019-05-10T03:03:08.802Z,13.79
2019-05-10T03:05:41.087Z,13.85
2019-05-10T03:08:15.580Z,13.72
2019-05-10T03:10:59.506Z,13.68
2019-05-10T03:13:31.274Z,13.76
2019-05-10T03:16:04.940Z,13.77
2019-05-10T03:18:35.060Z,13.77
2019-05-10T03:21:07.248Z,13.72
2019-05-10T03:23:37.910Z,13.04
2019-05-10T03:26:08.277Z,13.76
2019-05-10T03:28:39.201Z,13.88
2019-05-10T03:31:09.738Z,13.85
2019-05-10T03:33:39.932Z,13.74
2019-05-10T03:36:12.280Z,13.49
2019-05-10T03:38:43.017Z,13.51
2019-05-10T03:41:13.618Z,13.53
2019-05-10T03:43:44.050Z,13.59
2019-05-10T03:46:14.743Z,13.58
2019-05-10T03:48:44.605Z,13.74
2019-05-10T03:51:14.217Z,13.80
2019-05-10T03:53:43.968Z,13.73
2019-05-10T03:56:15.650Z,13.66
2019-05-10T03:58:45.695Z,13.88
2019-05-10T04:01:15.525Z,13.85
2019-05-10T04:03:45.404Z,13.99
2019-05-10T04:06:15.232Z,14.03
2019-05-10T04:08:45.098Z,14.16
2019-05-10T04:11:14.763Z,14.21
2019-05-10T04:13:44.476Z,14.14
2019-05-10T04:16:14.346Z,14.35
2019-05-10T04:18:44.575Z,14.20
2019-05-10T04:21:15.406Z,14.33
2019-05-10T04:23:46.336Z,13.81
2019-05-10T04:26:16.028Z,13.46
2019-05-10T04:28:45.639Z,13.55
2019-05-10T04:31:15.336Z,13.50
2019-05-10T04:33:44.934Z,13.55
2019-05-10T04:36:15.292Z,13.69
2019-05-10T04:38:45.940Z,13.72
2019-05-10T04:41:18.431Z,13.73
2019-05-10T04:43:49.635Z,13.82
2019-05-10T04:46:19.602Z,14.08
2019-05-10T04:48:50.457Z,14.18
2019-05-10T04:51:22.319Z,14.31
2019-05-10T04:53:51.970Z,14.07
2019-05-10T04:56:21.957Z,14.38
2019-05-10T04:58:52.602Z,14.38
2019-05-10T05:01:23.501Z,14.70
2019-05-10T05:03:53.631Z,14.87
2019-05-10T05:06:23.238Z,14.64
2019-05-10T05:08:52.868Z,14.53
2019-05-10T05:11:22.644Z,14.76
2019-05-10T05:13:52.355Z,15.16
2019-05-10T05:16:22.050Z,15.02
2019-05-10T05:18:51.759Z,15.61
2019-05-10T05:21:21.381Z,15.17
2019-05-10T05:23:51.107Z,14.94
2019-05-10T05:26:20.800Z,15.03
2019-05-10T05:28:50.452Z,14.97
2019-05-10T05:31:20.170Z,15.32
2019-05-10T05:33:50.532Z,14.94
2019-05-10T05:36:20.111Z,15.51
2019-05-10T05:38:49.874Z,15.39
2019-05-10T05:41:19.533Z,15.47
2019-05-10T05:43:49.220Z,15.33
2019-05-10T05:46:19.892Z,15.17
2019-05-10T05:48:51.423Z,15.25
2019-05-10T05:51:20.911Z,15.09
2019-05-10T05:53:50.627Z,15.81
2019-05-10T05:56:20.449Z,15.67
2019-05-10T05:58:50.057Z,15.92
2019-05-10T06:01:26.094Z,15.96
2019-05-10T06:03:51.190Z,15.87
2019-05-10T06:06:22.122Z,15.44
2019-05-10T06:08:54.484Z,16.18
2019-05-10T06:11:23.577Z,16.11
2019-05-10T06:13:53.184Z,15.90
2019-05-10T06:16:22.896Z,16.13
2019-05-10T06:18:52.523Z,16.13
2019-05-10T06:21:25.226Z,16.13
2019-05-10T06:23:53.606Z,16.50
2019-05-10T06:26:28.362Z,16.04
2019-05-10T06:28:59.585Z,16.18
2019-05-10T06:31:26.828Z,16.59
2019-05-10T06:33:56.602Z,16.39
2019-05-10T06:36:26.293Z,16.69
2019-05-10T06:38:55.945Z,16.60
2019-05-10T06:41:27.432Z,16.59
2019-05-10T06:44:00.188Z,16.83
2019-05-10T06:46:31.167Z,17.38
2019-05-10T06:49:07.078Z,17.65
2019-05-10T06:51:33.893Z,17.72
2019-05-10T06:54:03.658Z,17.78
2019-05-10T06:56:34.332Z,17.86
2019-05-10T06:59:12.964Z,17.54
2019-05-10T07:01:38.193Z,17.67
2019-05-10T07:04:06.863Z,17.83
2019-05-10T07:06:36.643Z,18.28
2019-05-10T07:09:07.623Z,17.78
2019-05-10T07:11:37.296Z,17.84
2019-05-10T07:14:06.983Z,17.51
2019-05-10T07:16:37.004Z,17.92
2019-05-10T07:19:06.876Z,17.46
2019-05-10T07:21:39.073Z,18.24
2019-05-10T07:24:07.919Z,18.27
2019-05-10T07:26:37.551Z,18.68
2019-05-10T07:29:07.368Z,18.66
2019-05-10T07:31:37.067Z,18.92
2019-05-10T07:34:09.858Z,19.49
2019-05-10T07:36:38.167Z,18.17
2019-05-10T07:39:08.886Z,18.23
2019-05-10T07:41:39.290Z,18.38
2019-05-10T07:44:10.635Z,18.40
2019-05-10T07:46:46.488Z,18.81
2019-05-10T07:49:12.054Z,19.03
2019-05-10T07:51:41.694Z,19.09
2019-05-10T07:54:11.450Z,19.41
2019-05-10T07:56:45.822Z,18.71
2019-05-10T07:59:16.181Z,18.24
2019-05-10T08:01:48.449Z,17.85
2019-05-10T08:04:19.770Z,17.80
2019-05-10T08:06:48.702Z,17.55
2019-05-10T08:09:19.241Z,17.12
2019-05-10T08:11:53.973Z,17.11
2019-05-10T08:14:20.497Z,17.20
2019-05-10T08:16:58.529Z,17.15
2019-05-10T08:19:21.972Z,17.09
2019-05-10T08:21:56.430Z,16.92
2019-05-10T08:24:22.977Z,17.12
2019-05-10T08:26:55.537Z,17.54
2019-05-10T08:29:24.052Z,17.73
2019-05-10T08:31:55.989Z,17.63
2019-05-10T08:34:28.927Z,17.88
2019-05-10T08:36:56.368Z,17.64
2019-05-10T08:39:26.026Z,17.65
2019-05-10T08:42:04.153Z,17.41
2019-05-10T08:44:28.703Z,17.41
2019-05-10T08:46:58.458Z,17.38
2019-05-10T08:49:35.501Z,17.28
2019-05-10T08:51:59.516Z,17.53
2019-05-10T08:54:29.261Z,17.71
2019-05-10T08:57:01.001Z,17.70
2019-05-10T08:59:31.001Z,17.81
2019-05-10T09:02:02.201Z,17.79
2019-05-10T09:04:42.208Z,18.27
2019-05-10T09:07:04.128Z,18.11
2019-05-10T09:09:45.458Z,18.38
2019-05-10T09:12:09.071Z,18.22
2019-05-10T09:14:37.101Z,18.49
2019-05-10T09:17:06.810Z,18.64
2019-05-10T09:19:40.928Z,18.72
2019-05-10T09:22:07.823Z,18.48
2019-05-10T09:24:43.083Z,18.56
2019-05-10T09:27:08.843Z,18.62
2019-05-10T09:29:38.439Z,18.58
2019-05-10T09:32:08.122Z,18.95
2019-05-10T09:34:38.269Z,18.78
2019-05-10T09:37:12.754Z,18.76
2019-05-10T09:39:39.295Z,18.75
2019-05-10T09:42:18.787Z,18.63
2019-05-10T09:44:40.347Z,18.74
2019-05-10T09:47:12.023Z,18.94
2019-05-10T09:49:46.099Z,18.63
2019-05-10T09:52:18.417Z,18.82
2019-05-10T09:54:44.757Z,18.60
2019-05-10T09:57:14.549Z,18.70
2019-05-10T09:59:44.188Z,18.80
2019-05-10T10:02:15.672Z,18.44
2019-05-10T10:04:47.346Z,18.43
2019-05-10T10:07:18.933Z,18.40
2019-05-10T10:09:48.204Z,18.43
2019-05-10T10:12:17.916Z,18.63
2019-05-10T10:14:47.515Z,18.56
2019-05-10T10:17:20.397Z,18.59
2019-05-10T10:19:48.761Z,18.77
2019-05-10T10:22:19.826Z,19.05
2019-05-10T10:24:54.775Z,19.27
2019-05-10T10:27:26.079Z,19.37
2019-05-10T10:29:52.555Z,19.54
2019-05-10T10:32:24.602Z,19.71
2019-05-10T10:34:54.923Z,19.85
2019-05-10T10:37:29.084Z,19.51
2019-05-10T10:40:03.758Z,19.89
2019-05-10T10:42:28.771Z,20.01
2019-05-10T10:44:58.519Z,20.06
2019-05-10T10:47:32.038Z,19.69
2019-05-10T10:50:03.005Z,19.60
2019-05-10T10:52:31.112Z,19.65
2019-05-10T10:55:00.688Z,20.02
2019-05-10T10:57:30.359Z,20.52
2019-05-10T10:59:59.991Z,20.41
2019-05-10T11:02:33.693Z,20.23
2019-05-10T11:05:01.145Z,19.79
2019-05-10T11:07:32.881Z,19.52
2019-05-10T11:10:14.349Z,19.81
2019-05-10T11:12:33.871Z,19.61
2019-05-10T11:15:03.704Z,19.82
2019-05-10T11:17:33.398Z,20.55
2019-05-10T11:20:03.248Z,20.49
2019-05-10T11:22:32.842Z,20.12
2019-05-10T11:25:08.871Z,20.52
2019-05-10T11:27:33.904Z,20.13
2019-05-10T11:30:03.764Z,20.05
2019-05-10T11:32:33.394Z,20.40
2019-05-10T11:35:05.388Z,20.69
2019-05-10T11:37:36.430Z,20.87
2019-05-10T11:40:06.357Z,20.77
2019-05-10T11:42:40.879Z,20.96
2019-05-10T11:45:07.942Z,21.26
2019-05-10T11:47:37.569Z,21.23
2019-05-10T11:50:07.539Z,21.46
2019-05-10T11:52:37.182Z,21.60
2019-05-10T11:55:07.540Z,21.14
2019-05-10T11:57:43.635Z,21.00
2019-05-10T12:00:23.880Z,21.09
2019-05-10T12:03:01.746Z,21.06
2019-05-10T12:05:20.016Z,20.94
2019-05-10T12:07:46.149Z,20.91
2019-05-10T12:10:21.029Z,20.94
2019-05-10T12:13:01.779Z,20.59
2019-05-10T12:15:25.039Z,20.60
2019-05-10T12:17:58.571Z,20.61
2019-05-10T12:20:26.820Z,20.90
2019-05-10T12:22:53.744Z,20.92
2019-05-10T12:25:42.527Z,20.91
2019-05-10T12:27:54.764Z,20.83
2019-05-10T12:30:24.598Z,20.93
2019-05-10T12:32:56.620Z,20.76
2019-05-10T12:35:26.412Z,20.46
2019-05-10T12:38:01.690Z,20.32
2019-05-10T12:40:31.580Z,20.62
2019-05-10T12:43:01.414Z,20.72
2019-05-10T12:45:31.552Z,20.69
2019-05-10T12:48:01.499Z,20.97
2019-05-10T12:50:31.106Z,21.21
2019-05-10T12:53:08.227Z,21.09
2019-05-10T12:55:32.209Z,21.01
2019-05-10T12:58:01.892Z,21.34
2019-05-10T13:00:31.627Z,20.99
2019-05-10T13:03:12.346Z,21.10
2019-05-10T13:05:34.223Z,21.02
2019-05-10T13:08:04.319Z,21.23
2019-05-10T13:10:37.215Z,21.13
2019-05-10T13:13:05.265Z,21.24
2019-05-10T13:15:34.945Z,20.72
2019-05-10T13:18:04.681Z,20.59
2019-05-10T13:20:36.486Z,20.85
2019-05-10T13:23:09.869Z,21.26
2019-05-10T13:25:37.687Z,20.92
2019-05-10T13:28:11.190Z,21.20
2019-05-10T13:30:38.957Z,21.41
2019-05-10T13:33:08.582Z,21.77
2019-05-10T13:35:38.230Z,21.89
2019-05-10T13:38:07.832Z,21.85
2019-05-10T13:40:38.938Z,21.39
2019-05-10T13:43:08.937Z,21.47
2019-05-10T13:45:39.625Z,21.57
2019-05-10T13:48:10.360Z,21.47
2019-05-10T13:50:39.965Z,21.20
2019-05-10T13:53:20.222Z,21.17
2019-05-10T13:55:40.977Z,21.23
2019-05-10T13:58:10.608Z,21.29
2019-05-10T14:00:40.310Z,21.43
2019-05-10T14:03:11.501Z,21.62
2019-05-10T14:05:41.392Z,21.73
2019-05-10T14:08:11.010Z,22.27
2019-05-10T14:10:40.624Z,22.46
2019-05-10T14:13:10.272Z,22.41
2019-05-10T14:15:39.922Z,22.29
2019-05-10T14:18:09.548Z,21.96
2019-05-10T14:20:39.180Z,21.69
2019-05-10T14:23:08.790Z,21.36
2019-05-10T14:25:39.017Z,21.65
2019-05-10T14:28:15.704Z,21.74
2019-05-10T14:30:40.391Z,21.28
2019-05-10T14:33:14.652Z,20.43
2019-05-10T14:35:41.458Z,21.29
2019-05-10T14:38:11.155Z,21.00
2019-05-10T14:40:41.054Z,20.90
2019-05-10T14:43:10.788Z,20.68
2019-05-10T14:45:40.456Z,21.07
2019-05-10T14:48:10.555Z,21.17
2019-05-10T14:50:40.215Z,21.34
2019-05-10T14:53:09.894Z,20.15
2019-05-10T14:55:39.579Z,20.80
2019-05-10T14:58:09.172Z,20.62
2019-05-10T15:00:39.039Z,20.94
2019-05-10T15:03:08.631Z,20.87
2019-05-10T15:05:38.332Z,20.81
2019-05-10T15:08:08.136Z,20.57
2019-05-10T15:10:39.403Z,20.52
2019-05-10T15:13:09.251Z,20.75
2019-05-10T15:15:38.913Z,20.72
2019-05-10T15:18:08.782Z,20.42
2019-05-10T15:20:38.593Z,20.60
2019-05-10T15:23:08.296Z,20.63
2019-05-10T15:25:38.120Z,20.28
2019-05-10T15:28:08.088Z,20.45
2019-05-10T15:30:39.417Z,20.88
2019-05-10T15:33:09.423Z,20.78
2019-05-10T15:35:39.130Z,20.98
2019-05-10T15:38:09.037Z,21.08
2019-05-10T15:40:44.280Z,20.96
2019-05-10T15:43:17.290Z,20.95
2019-05-10T15:45:45.907Z,20.93
2019-05-10T15:48:13.546Z,20.83
2019-05-10T15:50:43.262Z,20.78
2019-05-10T15:53:12.884Z,20.98
2019-05-10T15:55:42.668Z,20.50
2019-05-10T15:58:12.360Z,20.67
2019-05-10T16:00:42.005Z,20.71
2019-05-10T16:03:11.676Z,20.76
2019-05-10T16:05:43.889Z,20.52
2019-05-10T16:08:13.837Z,20.62
2019-05-10T16:10:43.701Z,20.31
2019-05-10T16:13:22.835Z,20.32
2019-05-10T16:15:45.899Z,20.30
2019-05-10T16:18:16.300Z,20.02
2019-05-10T16:20:47.139Z,20.27
2019-05-10T16:23:17.142Z,20.04
2019-05-10T16:25:48.611Z,19.97
2019-05-10T16:28:20.702Z,19.97
2019-05-10T16:30:51.561Z,19.99
2019-05-10T16:33:23.793Z,19.95
2019-05-10T16:35:53.963Z,20.15
2019-05-10T16:38:23.769Z,20.22
2019-05-10T16:40:58.587Z,20.29
2019-05-10T16:43:30.126Z,19.85
2019-05-10T16:45:59.860Z,19.60
2019-05-10T16:48:29.483Z,19.80
2019-05-10T16:51:09.142Z,19.78
2019-05-10T16:53:37.693Z,19.32
2019-05-10T16:56:06.412Z,19.67
2019-05-10T16:58:36.098Z,19.44
2019-05-10T17:01:05.703Z,19.20
2019-05-10T17:03:35.572Z,19.24
2019-05-10T17:06:05.829Z,19.39
2019-05-10T17:08:36.680Z,19.26
2019-05-10T17:11:10.009Z,19.32
2019-05-10T17:13:41.665Z,19.25
2019-05-10T17:16:11.723Z,19.24
2019-05-10T17:18:41.299Z,19.00
2019-05-10T17:21:10.967Z,19.32
2019-05-10T17:23:41.650Z,19.09
2019-05-10T17:26:11.959Z,19.03
2019-05-10T17:28:41.684Z,18.99
2019-05-10T17:31:11.300Z,19.12
2019-05-10T17:33:42.643Z,18.83
2019-05-10T17:36:14.392Z,18.77
2019-05-10T17:38:47.162Z,18.91
2019-05-10T17:41:19.397Z,18.77
2019-05-10T17:43:46.823Z,18.74
2019-05-10T17:46:18.908Z,18.56
2019-05-10T17:48:49.510Z,18.54
2019-05-10T17:51:19.220Z,18.55
2019-05-10T17:53:54.938Z,18.56
2019-05-10T17:56:20.432Z,18.47
2019-05-10T17:58:50.034Z,18.43
2019-05-10T18:01:19.762Z,18.41
2019-05-10T18:03:49.367Z,18.53
2019-05-10T18:06:24.094Z,18.25
2019-05-10T18:08:50.347Z,18.32
2019-05-10T18:11:20.112Z,18.14
2019-05-10T18:13:49.750Z,18.14
2019-05-10T18:16:19.518Z,18.16
2019-05-10T18:18:49.227Z,18.25
2019-05-10T18:21:21.763Z,18.20
2019-05-10T18:23:57.618Z,18.19
2019-05-10T18:26:23.211Z,18.05
2019-05-10T18:28:52.876Z,18.34
2019-05-10T18:31:23.642Z,18.06
2019-05-10T18:33:55.674Z,18.16
2019-05-10T18:36:48.880Z,17.97
2019-05-10T18:38:56.205Z,18.07
2019-05-10T18:41:28.055Z,18.08
2019-05-10T18:43:57.634Z,18.29
2019-05-10T18:46:27.230Z,18.21
2019-05-10T18:48:57.189Z,17.04
2019-05-10T18:51:28.270Z,18.08
2019-05-10T18:53:59.204Z,17.99
2019-05-10T18:56:31.190Z,18.06
2019-05-10T18:59:06.847Z,18.07
2019-05-10T19:01:33.027Z,18.10
2019-05-10T19:04:07.246Z,18.27
2019-05-10T19:06:34.363Z,18.21
2019-05-10T19:09:05.580Z,18.12
2019-05-10T19:11:39.019Z,17.94
2019-05-10T19:14:06.624Z,18.11
2019-05-10T19:17:28.209Z,18.16
2019-05-10T19:20:09.443Z,18.10
2019-05-10T19:22:41.296Z,18.00
2019-05-10T19:25:13.965Z,17.80
2019-05-10T19:27:47.846Z,17.81
2019-05-10T19:30:20.212Z,17.82
2019-05-10T19:32:56.432Z,17.96
2019-05-10T19:35:29.913Z,17.90
2019-05-10T19:37:58.170Z,18.02
2019-05-10T19:40:28.019Z,18.03
2019-05-10T19:42:58.022Z,17.97
2019-05-10T19:45:30.937Z,18.06
2019-05-10T19:47:58.927Z,18.07
2019-05-10T19:50:32.769Z,17.92
2019-05-10T19:53:03.893Z,17.98
2019-05-10T19:55:31.333Z,17.90
2019-05-10T19:58:00.963Z,18.32
2019-05-10T20:00:30.584Z,18.17
2019-05-10T20:03:00.226Z,18.01
2019-05-10T20:05:29.922Z,17.92
2019-05-10T20:07:59.602Z,18.11
2019-05-10T20:10:29.192Z,18.24
2019-05-10T20:12:58.883Z,18.18
2019-05-10T20:15:28.615Z,17.84
2019-05-10T20:17:58.219Z,18.00
2019-05-10T20:20:27.892Z,17.94
2019-05-10T20:22:57.473Z,17.76
2019-05-10T20:25:27.148Z,17.88
2019-05-10T20:27:56.766Z,17.81
2019-05-10T20:30:26.498Z,17.88
2019-05-10T20:32:56.415Z,17.87
2019-05-10T20:35:26.064Z,17.79
2019-05-10T20:38:01.998Z,17.75
2019-05-10T20:40:28.185Z,17.79
2019-05-10T20:42:57.779Z,17.68
2019-05-10T20:45:27.448Z,17.73
2019-05-10T20:47:57.760Z,17.94
2019-05-10T20:50:27.635Z,17.73
2019-05-10T20:52:58.279Z,17.51
2019-05-10T20:55:27.895Z,17.60
2019-05-10T20:57:58.053Z,17.51
2019-05-10T21:00:27.701Z,17.63
2019-05-10T21:02:57.294Z,17.61
2019-05-10T21:05:26.952Z,17.60
2019-05-10T21:07:56.565Z,17.87
2019-05-10T21:10:26.288Z,17.66
2019-05-10T21:12:55.899Z,17.45
2019-05-10T21:15:25.509Z,17.47
2019-05-10T21:17:55.172Z,17.64
2019-05-10T21:20:24.927Z,17.64
2019-05-10T21:22:54.667Z,17.54
2019-05-10T21:25:24.276Z,17.36
2019-05-10T21:27:56.070Z,17.43
2019-05-10T21:30:26.723Z,17.41
2019-05-10T21:32:56.316Z,17.51
2019-05-10T21:35:25.996Z,17.46
2019-05-10T21:37:55.628Z,17.81
2019-05-10T21:40:27.117Z,17.59
2019-05-10T21:43:04.174Z,17.60
2019-05-10T21:45:36.651Z,17.62
2019-05-10T21:48:07.070Z,17.76
2019-05-10T21:50:36.664Z,17.58
2019-05-10T21:53:06.356Z,17.57
2019-05-10T21:55:35.975Z,17.55
2019-05-10T21:58:05.565Z,17.59
2019-05-10T22:00:38.277Z,17.44
2019-05-10T22:03:08.049Z,16.98
2019-05-10T22:05:37.633Z,17.71
2019-05-10T22:08:07.396Z,17.77
2019-05-10T22:10:36.998Z,17.67
2019-05-10T22:13:06.643Z,17.58
2019-05-10T22:15:36.219Z,17.70
2019-05-10T22:18:05.954Z,17.83
2019-05-10T22:20:35.730Z,17.91
2019-05-10T22:23:05.359Z,17.86
2019-05-10T22:25:35.006Z,17.52
2019-05-10T22:28:04.715Z,17.96
2019-05-10T22:30:34.333Z,17.94
2019-05-10T22:33:03.977Z,17.82
2019-05-10T22:35:33.633Z,17.69
2019-05-10T22:38:03.226Z,17.87
2019-05-10T22:40:32.853Z,17.95
2019-05-10T22:43:02.553Z,17.95
2019-05-10T22:45:32.239Z,17.84
2019-05-10T22:48:01.860Z,17.96
2019-05-10T22:50:31.688Z,17.95
2019-05-10T22:53:01.371Z,17.94
2019-05-10T22:55:31.015Z,17.91
2019-05-10T22:58:00.647Z,17.96
2019-05-10T23:00:30.367Z,18.08
2019-05-10T23:02:59.982Z,17.90
2019-05-10T23:05:29.717Z,17.96
2019-05-10T23:07:59.314Z,17.94
2019-05-10T23:10:28.933Z,17.92
2019-05-10T23:12:58.560Z,18.01
2019-05-10T23:15:28.148Z,17.94
2019-05-10T23:17:57.767Z,17.95
2019-05-10T23:20:27.373Z,17.94
2019-05-10T23:22:56.994Z,18.09
2019-05-10T23:25:26.651Z,18.15
2019-05-10T23:27:56.345Z,17.84
2019-05-10T23:30:25.997Z,18.09
2019-05-10T23:32:55.585Z,17.94
2019-05-10T23:35:25.223Z,17.97
2019-05-10T23:37:54.820Z,17.87
2019-05-10T23:40:24.440Z,18.06
2019-05-10T23:42:54.035Z,17.90
2019-05-10T23:45:23.639Z,17.76
2019-05-10T23:47:53.267Z,17.83
2019-05-10T23:50:22.857Z,17.95
2019-05-10T23:52:52.442Z,17.95
2019-05-10T23:55:22.050Z,17.93
2019-05-10T23:57:51.676Z,18.18
